Airfield :
LOGIN :

Register | Disclaimer

   EN    FR    IT 

 










Legend :    VFR   Marginal VFR   IFR   Intensive IFR   Very Intensive IFR
Visi :
Ceiling :
>= 8 km
>= 3000ft
5 to 8 km
1000 to 3000 ft
1500m to 5 km
500 to 1000 ft
800 to 1500m
200 to 500 ft
< 800m
< 200 ft
Symbols :   Thunderstorms  Fog  Heavy snow  Heavy precipitations  Wind > 20 kt
SIGMETs :     Misc.  Thunderstorms  Icing  Turbulence  Mountain Waves  Volcanic Ashes






- Airport Elevation : 63 ft
- IATA code : BZM


EHWO - Woensdrecht Airbase

CURRENT METAR :
  • 300141Z AUTO 23004KT 9999 BKN015 OVC050 15/13 Q1015 WHT

EXPIRED METARs :
  • 300125Z AUTO 21004KT 9999 FEW015 BKN045 OVC050 14/13 Q1015 BLU
  • 300055Z AUTO 20003KT 9999 OVC047 14/13 Q1015 BLU
  • 300025Z AUTO VRB02KT 9000 BR BKN043 13/13 Q1015 BLU
  • 292355Z AUTO 21004KT 200V270 9999 NCD 14/13 Q1015 BLU
  • 292325Z AUTO 22004KT 9999 NCD 14/13 Q1016 BLU
  • 292255Z AUTO 22007KT 9999 BKN067 BKN072 15/13 Q1016 BLU

Expired Forecast.



MET'MAP, your aeronautical weather chart ! - Copyright ORBIFLY December 2007 - Disclaimer

ORBIFLY MET'MAP TEAM :

Programming & Development : Alexandra Zaïnal
Concept & original design : Baudouin d'Aumeries
Assistance for programming : Marc-Olivier Méhu
Technical & hardware support : Manuel Goepfert

Contact : metmap@orbifly.com




SOURCES & CREDITS :

   NOAA